Mc Donald, Pennsylvania
Current Conditions -  °F | °C
As of 2:51 PM on Tuesday 21 Oct 2014 (Local Time) from KPIT Reporting Station
Light Rain Light Rain  
Wind Chill: 12°   Ceiling: 2000
Heat Index: 12°   Visibility: 10mi
Dew Point:   Wind: 15mph
Humidity: 74%   Direction: 320°NW
Pressure: 29.88"   Gusts: NA
Location:  40.3662°N, 80.2739°W
Report Text: KPIT 211851Z 32013KT 10SM -RA BKN020 OVC035 12/07 A2988 RMK AO2 RAB41 SLP128 P0000 T01170072
Loading
Personal Weather Stations






























Interactive Weather Map
Tropical Storm Tracking
New forecast layout! Learn more

10-Day Weather Forecast

Advertisements
Track Severe Weather on mobile